sensor_id;sensor_type;location;lat;lon;timestamp;temperature;humidity
31443;SHT31;18065;55.876;9.830;2022-07-29T00:00:15;23.79;44.60
31443;SHT31;18065;55.876;9.830;2022-07-29T00:02:44;23.78;44.51
31443;SHT31;18065;55.876;9.830;2022-07-29T00:05:13;23.79;44.47
31443;SHT31;18065;55.876;9.830;2022-07-29T00:07:41;23.77;44.31
31443;SHT31;18065;55.876;9.830;2022-07-29T00:10:10;23.79;44.47
31443;SHT31;18065;55.876;9.830;2022-07-29T00:12:39;23.78;44.36
31443;SHT31;18065;55.876;9.830;2022-07-29T00:15:08;23.78;44.42
31443;SHT31;18065;55.876;9.830;2022-07-29T00:17:40;23.78;44.38
31443;SHT31;18065;55.876;9.830;2022-07-29T00:20:09;23.78;44.44
31443;SHT31;18065;55.876;9.830;2022-07-29T00:22:39;23.78;44.36
31443;SHT31;18065;55.876;9.830;2022-07-29T00:25:08;23.79;44.24
31443;SHT31;18065;55.876;9.830;2022-07-29T00:27:36;23.79;44.31
31443;SHT31;18065;55.876;9.830;2022-07-29T00:30:06;23.78;44.34
31443;SHT31;18065;55.876;9.830;2022-07-29T00:32:35;23.78;44.20
31443;SHT31;18065;55.876;9.830;2022-07-29T00:35:08;23.81;44.31
31443;SHT31;18065;55.876;9.830;2022-07-29T00:37:49;23.78;44.18
31443;SHT31;18065;55.876;9.830;2022-07-29T00:40:18;23.78;44.18
31443;SHT31;18065;55.876;9.830;2022-07-29T00:42:48;23.77;44.10
31443;SHT31;18065;55.876;9.830;2022-07-29T00:45:17;23.77;44.17
31443;SHT31;18065;55.876;9.830;2022-07-29T00:47:47;23.77;44.13
31443;SHT31;18065;55.876;9.830;2022-07-29T00:50:19;23.78;43.99
31443;SHT31;18065;55.876;9.830;2022-07-29T00:52:48;23.77;43.99
31443;SHT31;18065;55.876;9.830;2022-07-29T00:55:17;23.77;43.95
31443;SHT31;18065;55.876;9.830;2022-07-29T00:57:46;23.75;43.95
31443;SHT31;18065;55.876;9.830;2022-07-29T01:00:17;23.74;43.98
31443;SHT31;18065;55.876;9.830;2022-07-29T01:02:47;23.71;43.87
31443;SHT31;18065;55.876;9.830;2022-07-29T01:05:21;23.73;43.96
31443;SHT31;18065;55.876;9.830;2022-07-29T01:07:51;23.75;43.85
31443;SHT31;18065;55.876;9.830;2022-07-29T01:10:20;23.69;44.02
31443;SHT31;18065;55.876;9.830;2022-07-29T01:12:52;23.73;43.91
31443;SHT31;18065;55.876;9.830;2022-07-29T01:15:21;23.73;43.96
31443;SHT31;18065;55.876;9.830;2022-07-29T01:17:56;23.74;43.87
31443;SHT31;18065;55.876;9.830;2022-07-29T01:20:34;23.73;43.91
31443;SHT31;18065;55.876;9.830;2022-07-29T01:23:17;23.68;43.81
31443;SHT31;18065;55.876;9.830;2022-07-29T01:26:06;23.68;43.66
31443;SHT31;18065;55.876;9.830;2022-07-29T01:29:00;23.68;43.74
31443;SHT31;18065;55.876;9.830;2022-07-29T01:31:35;23.69;43.92
31443;SHT31;18065;55.876;9.830;2022-07-29T01:34:08;23.69;43.87
31443;SHT31;18065;55.876;9.830;2022-07-29T01:36:43;23.68;43.82
31443;SHT31;18065;55.876;9.830;2022-07-29T01:39:19;23.68;43.75
31443;SHT31;18065;55.876;9.830;2022-07-29T01:41:52;23.68;43.82
31443;SHT31;18065;55.876;9.830;2022-07-29T01:44:31;23.66;43.76
31443;SHT31;18065;55.876;9.830;2022-07-29T01:47:05;23.66;43.90
31443;SHT31;18065;55.876;9.830;2022-07-29T01:49:42;23.65;43.77
31443;SHT31;18065;55.876;9.830;2022-07-29T01:52:18;23.64;43.82
31443;SHT31;18065;55.876;9.830;2022-07-29T01:54:52;23.65;43.80
31443;SHT31;18065;55.876;9.830;2022-07-29T01:57:26;23.65;43.77
31443;SHT31;18065;55.876;9.830;2022-07-29T01:59:59;23.65;43.75
31443;SHT31;18065;55.876;9.830;2022-07-29T02:02:30;23.65;43.75
31443;SHT31;18065;55.876;9.830;2022-07-29T02:05:01;23.65;43.78
31443;SHT31;18065;55.876;9.830;2022-07-29T02:07:31;23.64;43.70
31443;SHT31;18065;55.876;9.830;2022-07-29T02:10:03;23.64;43.73
31443;SHT31;18065;55.876;9.830;2022-07-29T02:12:32;23.61;43.64
31443;SHT31;18065;55.876;9.830;2022-07-29T02:15:06;23.61;43.67
31443;SHT31;18065;55.876;9.830;2022-07-29T02:17:41;23.65;43.60
31443;SHT31;18065;55.876;9.830;2022-07-29T02:20:12;23.57;43.67
31443;SHT31;18065;55.876;9.830;2022-07-29T02:22:42;23.61;43.60
31443;SHT31;18065;55.876;9.830;2022-07-29T02:25:13;23.59;43.59
31443;SHT31;18065;55.876;9.830;2022-07-29T02:27:44;23.58;43.63
31443;SHT31;18065;55.876;9.830;2022-07-29T02:30:17;23.57;43.51
31443;SHT31;18065;55.876;9.830;2022-07-29T02:32:46;23.57;43.60
31443;SHT31;18065;55.876;9.830;2022-07-29T02:35:17;23.58;43.52
31443;SHT31;18065;55.876;9.830;2022-07-29T02:37:47;23.57;43.47
31443;SHT31;18065;55.876;9.830;2022-07-29T02:40:38;23.55;43.43
31443;SHT31;18065;55.876;9.830;2022-07-29T02:43:09;23.58;43.45
31443;SHT31;18065;55.876;9.830;2022-07-29T02:45:41;23.55;43.40
31443;SHT31;18065;55.876;9.830;2022-07-29T02:48:13;23.54;43.43
31443;SHT31;18065;55.876;9.830;2022-07-29T02:50:48;23.53;43.42
31443;SHT31;18065;55.876;9.830;2022-07-29T02:53:21;23.50;43.30
31443;SHT31;18065;55.876;9.830;2022-07-29T02:55:55;23.50;43.40
31443;SHT31;18065;55.876;9.830;2022-07-29T02:58:27;23.50;43.32
31443;SHT31;18065;55.876;9.830;2022-07-29T03:01:02;23.50;43.19
31443;SHT31;18065;55.876;9.830;2022-07-29T03:03:35;23.50;43.26
31443;SHT31;18065;55.876;9.830;2022-07-29T03:06:05;23.50;43.22
31443;SHT31;18065;55.876;9.830;2022-07-29T03:08:35;23.51;43.11
31443;SHT31;18065;55.876;9.830;2022-07-29T03:11:04;23.50;43.04
31443;SHT31;18065;55.876;9.830;2022-07-29T03:13:33;23.48;43.09
31443;SHT31;18065;55.876;9.830;2022-07-29T03:16:06;23.47;42.99
31443;SHT31;18065;55.876;9.830;2022-07-29T03:18:37;23.45;43.11
31443;SHT31;18065;55.876;9.830;2022-07-29T03:21:06;23.47;42.96
31443;SHT31;18065;55.876;9.830;2022-07-29T03:23:36;23.47;43.05
31443;SHT31;18065;55.876;9.830;2022-07-29T03:26:05;23.45;42.85
31443;SHT31;18065;55.876;9.830;2022-07-29T03:28:33;23.41;43.03
31443;SHT31;18065;55.876;9.830;2022-07-29T03:31:05;23.43;42.97
31443;SHT31;18065;55.876;9.830;2022-07-29T03:33:34;23.40;42.88
31443;SHT31;18065;55.876;9.830;2022-07-29T03:36:02;23.41;42.85
31443;SHT31;18065;55.876;9.830;2022-07-29T03:38:33;23.41;42.94
31443;SHT31;18065;55.876;9.830;2022-07-29T03:41:07;23.40;42.72
31443;SHT31;18065;55.876;9.830;2022-07-29T03:43:37;23.41;42.85
31443;SHT31;18065;55.876;9.830;2022-07-29T03:46:10;23.41;42.73
31443;SHT31;18065;55.876;9.830;2022-07-29T03:48:42;23.37;42.88
31443;SHT31;18065;55.876;9.830;2022-07-29T03:51:12;23.37;42.83
31443;SHT31;18065;55.876;9.830;2022-07-29T03:53:42;23.37;42.92
31443;SHT31;18065;55.876;9.830;2022-07-29T03:56:15;23.37;42.82
31443;SHT31;18065;55.876;9.830;2022-07-29T03:58:44;23.38;42.68
31443;SHT31;18065;55.876;9.830;2022-07-29T04:01:16;23.37;42.81
31443;SHT31;18065;55.876;9.830;2022-07-29T04:03:45;23.34;42.76
31443;SHT31;18065;55.876;9.830;2022-07-29T04:06:14;23.36;42.81
31443;SHT31;18065;55.876;9.830;2022-07-29T04:08:43;23.38;42.66
31443;SHT31;18065;55.876;9.830;2022-07-29T04:11:12;23.40;42.68
31443;SHT31;18065;55.876;9.830;2022-07-29T04:13:41;23.36;42.55
31443;SHT31;18065;55.876;9.830;2022-07-29T04:16:09;23.41;42.68
31443;SHT31;18065;55.876;9.830;2022-07-29T04:18:41;23.36;42.59
31443;SHT31;18065;55.876;9.830;2022-07-29T04:21:09;23.36;42.58
31443;SHT31;18065;55.876;9.830;2022-07-29T04:23:38;23.33;42.76
31443;SHT31;18065;55.876;9.830;2022-07-29T04:26:10;23.33;42.85
31443;SHT31;18065;55.876;9.830;2022-07-29T04:28:39;23.36;42.55
31443;SHT31;18065;55.876;9.830;2022-07-29T04:31:08;23.36;42.81
31443;SHT31;18065;55.876;9.830;2022-07-29T04:33:37;23.36;43.35
31443;SHT31;18065;55.876;9.830;2022-07-29T04:36:08;23.38;44.11
31443;SHT31;18065;55.876;9.830;2022-07-29T04:38:37;23.38;44.38
31443;SHT31;18065;55.876;9.830;2022-07-29T04:41:09;23.40;44.45
31443;SHT31;18065;55.876;9.830;2022-07-29T04:43:38;23.40;44.15
31443;SHT31;18065;55.876;9.830;2022-07-29T04:46:07;23.38;44.07
31443;SHT31;18065;55.876;9.830;2022-07-29T04:48:35;23.38;44.00
31443;SHT31;18065;55.876;9.830;2022-07-29T04:51:04;23.38;44.03
31443;SHT31;18065;55.876;9.830;2022-07-29T04:53:35;23.38;44.07
31443;SHT31;18065;55.876;9.830;2022-07-29T04:56:05;23.40;44.04
31443;SHT31;18065;55.876;9.830;2022-07-29T04:58:34;23.36;44.05
31443;SHT31;18065;55.876;9.830;2022-07-29T05:01:03;23.36;44.12
31443;SHT31;18065;55.876;9.830;2022-07-29T05:03:32;23.37;44.50
31443;SHT31;18065;55.876;9.830;2022-07-29T05:06:01;23.40;44.82
31443;SHT31;18065;55.876;9.830;2022-07-29T05:08:29;23.41;44.56
31443;SHT31;18065;55.876;9.830;2022-07-29T05:11:01;23.40;44.43
31443;SHT31;18065;55.876;9.830;2022-07-29T05:13:30;23.41;44.41
31443;SHT31;18065;55.876;9.830;2022-07-29T05:15:58;23.43;44.54
31443;SHT31;18065;55.876;9.830;2022-07-29T05:18:27;23.41;44.41
31443;SHT31;18065;55.876;9.830;2022-07-29T05:20:57;23.43;44.50
31443;SHT31;18065;55.876;9.830;2022-07-29T05:23:25;23.47;44.52
31443;SHT31;18065;55.876;9.830;2022-07-29T05:25:54;23.47;44.52
31443;SHT31;18065;55.876;9.830;2022-07-29T05:28:25;23.44;44.56
31443;SHT31;18065;55.876;9.830;2022-07-29T05:30:54;23.47;44.46
31443;SHT31;18065;55.876;9.830;2022-07-29T05:33:23;23.51;44.49
31443;SHT31;18065;55.876;9.830;2022-07-29T05:35:51;23.53;44.53
31443;SHT31;18065;55.876;9.830;2022-07-29T05:38:20;23.48;44.67
31443;SHT31;18065;55.876;9.830;2022-07-29T05:40:49;23.53;44.54
31443;SHT31;18065;55.876;9.830;2022-07-29T05:43:17;23.53;44.59
31443;SHT31;18065;55.876;9.830;2022-07-29T05:45:49;23.55;44.63
31443;SHT31;18065;55.876;9.830;2022-07-29T05:48:17;23.57;44.62
31443;SHT31;18065;55.876;9.830;2022-07-29T05:50:46;23.54;44.65
31443;SHT31;18065;55.876;9.830;2022-07-29T05:53:15;23.57;44.67
31443;SHT31;18065;55.876;9.830;2022-07-29T05:55:44;23.58;44.66
31443;SHT31;18065;55.876;9.830;2022-07-29T05:58:12;23.59;44.73
31443;SHT31;18065;55.876;9.830;2022-07-29T06:00:41;23.59;44.68
31443;SHT31;18065;55.876;9.830;2022-07-29T06:03:13;23.59;44.80
31443;SHT31;18065;55.876;9.830;2022-07-29T06:05:41;23.58;44.92
31443;SHT31;18065;55.876;9.830;2022-07-29T06:08:10;23.61;44.87
31443;SHT31;18065;55.876;9.830;2022-07-29T06:10:39;23.59;44.95
31443;SHT31;18065;55.876;9.830;2022-07-29T06:13:08;23.58;45.01
31443;SHT31;18065;55.876;9.830;2022-07-29T06:15:36;23.59;45.06
31443;SHT31;18065;55.876;9.830;2022-07-29T06:18:05;23.61;45.10
31443;SHT31;18065;55.876;9.830;2022-07-29T06:20:38;23.57;45.21
31443;SHT31;18065;55.876;9.830;2022-07-29T06:23:07;23.57;45.32
31443;SHT31;18065;55.876;9.830;2022-07-29T06:25:35;23.59;45.38
31443;SHT31;18065;55.876;9.830;2022-07-29T06:28:04;23.58;45.56
31443;SHT31;18065;55.876;9.830;2022-07-29T06:30:33;23.59;45.66
31443;SHT31;18065;55.876;9.830;2022-07-29T06:33:02;23.65;45.77
31443;SHT31;18065;55.876;9.830;2022-07-29T06:35:33;23.62;45.98
31443;SHT31;18065;55.876;9.830;2022-07-29T06:38:07;23.62;45.95
31443;SHT31;18065;55.876;9.830;2022-07-29T06:40:36;23.64;46.09
31443;SHT31;18065;55.876;9.830;2022-07-29T06:43:21;23.65;46.13
31443;SHT31;18065;55.876;9.830;2022-07-29T06:45:49;23.68;46.09
31443;SHT31;18065;55.876;9.830;2022-07-29T06:48:18;23.71;46.16
31443;SHT31;18065;55.876;9.830;2022-07-29T06:50:47;23.73;46.18
31443;SHT31;18065;55.876;9.830;2022-07-29T06:53:19;23.75;46.37
31443;SHT31;18065;55.876;9.830;2022-07-29T06:55:47;23.75;46.58
31443;SHT31;18065;55.876;9.830;2022-07-29T06:58:17;23.74;46.90
31443;SHT31;18065;55.876;9.830;2022-07-29T07:00:46;23.71;47.03
31443;SHT31;18065;55.876;9.830;2022-07-29T07:03:17;23.69;47.06
31443;SHT31;18065;55.876;9.830;2022-07-29T07:05:46;23.77;47.12
31443;SHT31;18065;55.876;9.830;2022-07-29T07:08:17;23.78;47.24
31443;SHT31;18065;55.876;9.830;2022-07-29T07:10:47;23.78;47.07
31443;SHT31;18065;55.876;9.830;2022-07-29T07:13:16;23.82;47.44
31443;SHT31;18065;55.876;9.830;2022-07-29T07:15:46;23.84;47.48
31443;SHT31;18065;55.876;9.830;2022-07-29T07:18:17;23.84;47.45
31443;SHT31;18065;55.876;9.830;2022-07-29T07:20:46;23.86;47.74
31443;SHT31;18065;55.876;9.830;2022-07-29T07:23:15;23.91;47.81
31443;SHT31;18065;55.876;9.830;2022-07-29T07:25:46;23.94;47.34
31443;SHT31;18065;55.876;9.830;2022-07-29T07:28:15;24.01;47.27
31443;SHT31;18065;55.876;9.830;2022-07-29T07:30:44;24.03;47.50
31443;SHT31;18065;55.876;9.830;2022-07-29T07:33:14;24.05;48.08
31443;SHT31;18065;55.876;9.830;2022-07-29T07:35:42;24.05;47.67
31443;SHT31;18065;55.876;9.830;2022-07-29T07:38:11;24.06;47.63
31443;SHT31;18065;55.876;9.830;2022-07-29T07:40:40;24.10;47.90
31443;SHT31;18065;55.876;9.830;2022-07-29T07:43:14;24.08;48.31
31443;SHT31;18065;55.876;9.830;2022-07-29T07:45:43;24.08;48.65
31443;SHT31;18065;55.876;9.830;2022-07-29T07:48:12;24.10;47.85
31443;SHT31;18065;55.876;9.830;2022-07-29T07:50:41;24.13;47.98
31443;SHT31;18065;55.876;9.830;2022-07-29T07:53:09;24.12;48.31
31443;SHT31;18065;55.876;9.830;2022-07-29T07:55:40;24.17;47.82
31443;SHT31;18065;55.876;9.830;2022-07-29T07:58:09;24.19;47.72
31443;SHT31;18065;55.876;9.830;2022-07-29T08:00:40;24.19;47.86
31443;SHT31;18065;55.876;9.830;2022-07-29T08:03:09;24.23;47.67
31443;SHT31;18065;55.876;9.830;2022-07-29T08:05:40;24.22;47.60
31443;SHT31;18065;55.876;9.830;2022-07-29T08:08:08;24.27;47.46
31443;SHT31;18065;55.876;9.830;2022-07-29T08:10:37;24.25;47.48
31443;SHT31;18065;55.876;9.830;2022-07-29T08:13:23;24.20;47.19
31443;SHT31;18065;55.876;9.830;2022-07-29T08:15:56;24.16;47.26
31443;SHT31;18065;55.876;9.830;2022-07-29T08:18:37;24.17;47.39
31443;SHT31;18065;55.876;9.830;2022-07-29T08:21:06;24.20;47.15
31443;SHT31;18065;55.876;9.830;2022-07-29T08:23:34;24.25;46.95
31443;SHT31;18065;55.876;9.830;2022-07-29T08:26:04;24.29;46.87
31443;SHT31;18065;55.876;9.830;2022-07-29T08:28:36;24.29;46.69
31443;SHT31;18065;55.876;9.830;2022-07-29T08:31:08;24.29;46.74
31443;SHT31;18065;55.876;9.830;2022-07-29T08:33:36;24.33;46.74
31443;SHT31;18065;55.876;9.830;2022-07-29T08:36:06;24.33;46.52
31443;SHT31;18065;55.876;9.830;2022-07-29T08:38:35;24.37;46.49
31443;SHT31;18065;55.876;9.830;2022-07-29T08:41:03;24.35;46.31
31443;SHT31;18065;55.876;9.830;2022-07-29T08:43:32;24.30;46.36
31443;SHT31;18065;55.876;9.830;2022-07-29T08:46:02;24.36;46.36
31443;SHT31;18065;55.876;9.830;2022-07-29T08:48:34;24.32;46.54
31443;SHT31;18065;55.876;9.830;2022-07-29T08:51:03;24.37;46.31
31443;SHT31;18065;55.876;9.830;2022-07-29T08:53:35;24.37;46.30
31443;SHT31;18065;55.876;9.830;2022-07-29T08:56:04;24.40;46.18
31443;SHT31;18065;55.876;9.830;2022-07-29T08:58:33;24.46;46.11
31443;SHT31;18065;55.876;9.830;2022-07-29T09:01:03;24.46;46.09
31443;SHT31;18065;55.876;9.830;2022-07-29T09:03:36;24.44;45.92
31443;SHT31;18065;55.876;9.830;2022-07-29T09:06:05;24.49;45.89
31443;SHT31;18065;55.876;9.830;2022-07-29T09:08:34;24.50;45.75
31443;SHT31;18065;55.876;9.830;2022-07-29T09:11:03;24.53;45.72
31443;SHT31;18065;55.876;9.830;2022-07-29T09:13:33;24.54;45.71
31443;SHT31;18065;55.876;9.830;2022-07-29T09:16:01;24.56;45.61
31443;SHT31;18065;55.876;9.830;2022-07-29T09:18:37;24.54;45.46
31443;SHT31;18065;55.876;9.830;2022-07-29T09:21:07;24.53;45.54
31443;SHT31;18065;55.876;9.830;2022-07-29T09:24:03;24.53;45.53
31443;SHT31;18065;55.876;9.830;2022-07-29T09:26:32;24.59;45.12
31443;SHT31;18065;55.876;9.830;2022-07-29T09:29:08;24.53;45.29
31443;SHT31;18065;55.876;9.830;2022-07-29T09:31:39;24.57;45.23
31443;SHT31;18065;55.876;9.830;2022-07-29T09:34:13;24.56;45.14
31443;SHT31;18065;55.876;9.830;2022-07-29T09:36:44;24.57;45.12
31443;SHT31;18065;55.876;9.830;2022-07-29T09:39:13;24.59;45.09
31443;SHT31;18065;55.876;9.830;2022-07-29T09:41:47;24.61;44.99
31443;SHT31;18065;55.876;9.830;2022-07-29T09:44:18;24.65;44.90
31443;SHT31;18065;55.876;9.830;2022-07-29T09:46:58;24.65;44.65
31443;SHT31;18065;55.876;9.830;2022-07-29T09:49:34;24.68;44.56
31443;SHT31;18065;55.876;9.830;2022-07-29T09:52:05;24.65;44.63
31443;SHT31;18065;55.876;9.830;2022-07-29T09:54:35;24.67;44.65
31443;SHT31;18065;55.876;9.830;2022-07-29T09:57:08;24.67;44.53
31443;SHT31;18065;55.876;9.830;2022-07-29T09:59:41;24.70;44.16
31443;SHT31;18065;55.876;9.830;2022-07-29T10:02:29;24.70;44.14
31443;SHT31;18065;55.876;9.830;2022-07-29T10:05:03;24.70;44.10
31443;SHT31;18065;55.876;9.830;2022-07-29T10:07:44;24.68;44.12
31443;SHT31;18065;55.876;9.830;2022-07-29T10:10:19;24.73;44.05
31443;SHT31;18065;55.876;9.830;2022-07-29T10:12:50;24.73;44.09
31443;SHT31;18065;55.876;9.830;2022-07-29T10:15:21;24.77;43.92
31443;SHT31;18065;55.876;9.830;2022-07-29T10:17:51;24.77;43.96
31443;SHT31;18065;55.876;9.830;2022-07-29T10:20:23;24.80;43.90
31443;SHT31;18065;55.876;9.830;2022-07-29T10:22:52;24.78;43.82
31443;SHT31;18065;55.876;9.830;2022-07-29T10:25:21;24.84;43.78
31443;SHT31;18065;55.876;9.830;2022-07-29T10:27:51;24.85;43.73
31443;SHT31;18065;55.876;9.830;2022-07-29T10:30:21;24.84;43.69
31443;SHT31;18065;55.876;9.830;2022-07-29T10:33:05;24.85;43.72
31443;SHT31;18065;55.876;9.830;2022-07-29T10:36:02;24.87;43.67
31443;SHT31;18065;55.876;9.830;2022-07-29T10:38:43;24.88;43.65
31443;SHT31;18065;55.876;9.830;2022-07-29T10:41:23;24.88;43.55
31443;SHT31;18065;55.876;9.830;2022-07-29T10:44:00;24.88;43.59
31443;SHT31;18065;55.876;9.830;2022-07-29T10:46:34;24.91;43.59
31443;SHT31;18065;55.876;9.830;2022-07-29T10:49:07;24.90;43.56
31443;SHT31;18065;55.876;9.830;2022-07-29T10:52:05;24.91;43.56
31443;SHT31;18065;55.876;9.830;2022-07-29T10:54:48;24.91;43.45
31443;SHT31;18065;55.876;9.830;2022-07-29T10:57:24;24.91;43.51
31443;SHT31;18065;55.876;9.830;2022-07-29T11:02:52;24.94;43.56
31443;SHT31;18065;55.876;9.830;2022-07-29T11:05:23;24.92;43.58
31443;SHT31;18065;55.876;9.830;2022-07-29T11:08:19;24.92;43.63
31443;SHT31;18065;55.876;9.830;2022-07-29T11:10:49;24.94;43.40
31443;SHT31;18065;55.876;9.830;2022-07-29T11:13:44;24.84;43.29
31443;SHT31;18065;55.876;9.830;2022-07-29T11:16:15;24.80;43.33
31443;SHT31;18065;55.876;9.830;2022-07-29T11:21:44;24.87;43.56
31443;SHT31;18065;55.876;9.830;2022-07-29T11:24:19;24.87;43.55
31443;SHT31;18065;55.876;9.830;2022-07-29T11:27:06;24.90;43.56
31443;SHT31;18065;55.876;9.830;2022-07-29T11:29:37;24.92;43.60
31443;SHT31;18065;55.876;9.830;2022-07-29T11:32:11;24.94;43.53
31443;SHT31;18065;55.876;9.830;2022-07-29T11:34:41;24.91;43.57
31443;SHT31;18065;55.876;9.830;2022-07-29T11:37:15;24.92;43.62
31443;SHT31;18065;55.876;9.830;2022-07-29T11:39:46;24.98;43.60
31443;SHT31;18065;55.876;9.830;2022-07-29T11:42:37;24.94;43.69
31443;SHT31;18065;55.876;9.830;2022-07-29T11:45:08;24.94;43.70
31443;SHT31;18065;55.876;9.830;2022-07-29T11:47:41;24.98;43.72
31443;SHT31;18065;55.876;9.830;2022-07-29T11:50:13;24.95;43.80
31443;SHT31;18065;55.876;9.830;2022-07-29T11:52:43;24.98;43.83
31443;SHT31;18065;55.876;9.830;2022-07-29T11:55:18;24.97;43.91
31443;SHT31;18065;55.876;9.830;2022-07-29T11:57:48;24.97;43.85
31443;SHT31;18065;55.876;9.830;2022-07-29T12:00:23;24.95;43.97
31443;SHT31;18065;55.876;9.830;2022-07-29T12:02:52;24.98;43.96
31443;SHT31;18065;55.876;9.830;2022-07-29T12:05:25;24.95;43.87
31443;SHT31;18065;55.876;9.830;2022-07-29T12:08:04;24.97;43.83
31443;SHT31;18065;55.876;9.830;2022-07-29T12:10:37;24.97;43.99
31443;SHT31;18065;55.876;9.830;2022-07-29T12:13:06;24.97;44.01
31443;SHT31;18065;55.876;9.830;2022-07-29T12:15:35;24.95;43.79
31443;SHT31;18065;55.876;9.830;2022-07-29T12:18:15;24.97;43.92
31443;SHT31;18065;55.876;9.830;2022-07-29T12:20:45;24.94;43.91
31443;SHT31;18065;55.876;9.830;2022-07-29T12:23:15;24.95;43.87
31443;SHT31;18065;55.876;9.830;2022-07-29T12:25:47;24.97;43.79
31443;SHT31;18065;55.876;9.830;2022-07-29T12:28:16;24.98;43.78
31443;SHT31;18065;55.876;9.830;2022-07-29T12:30:48;24.98;43.76
31443;SHT31;18065;55.876;9.830;2022-07-29T12:33:20;24.98;43.80
31443;SHT31;18065;55.876;9.830;2022-07-29T12:35:51;24.98;43.77
31443;SHT31;18065;55.876;9.830;2022-07-29T12:38:20;25.01;43.81
31443;SHT31;18065;55.876;9.830;2022-07-29T12:40:53;24.98;43.79
31443;SHT31;18065;55.876;9.830;2022-07-29T12:43:23;25.05;43.74
31443;SHT31;18065;55.876;9.830;2022-07-29T12:45:54;25.05;43.72
31443;SHT31;18065;55.876;9.830;2022-07-29T12:48:38;25.05;43.72
31443;SHT31;18065;55.876;9.830;2022-07-29T12:51:08;25.05;43.71
31443;SHT31;18065;55.876;9.830;2022-07-29T12:53:39;25.04;43.70
31443;SHT31;18065;55.876;9.830;2022-07-29T12:56:15;25.01;43.60
31443;SHT31;18065;55.876;9.830;2022-07-29T12:58:44;25.05;43.66
31443;SHT31;18065;55.876;9.830;2022-07-29T13:01:15;25.00;43.62
31443;SHT31;18065;55.876;9.830;2022-07-29T13:03:47;25.05;43.54
31443;SHT31;18065;55.876;9.830;2022-07-29T13:06:32;25.05;43.55
31443;SHT31;18065;55.876;9.830;2022-07-29T13:09:05;25.05;43.48
31443;SHT31;18065;55.876;9.830;2022-07-29T13:11:39;25.04;43.43
31443;SHT31;18065;55.876;9.830;2022-07-29T13:14:08;25.02;43.33
31443;SHT31;18065;55.876;9.830;2022-07-29T13:17:01;25.04;43.33
31443;SHT31;18065;55.876;9.830;2022-07-29T13:19:35;25.04;43.32
31443;SHT31;18065;55.876;9.830;2022-07-29T13:22:06;25.07;43.24
31443;SHT31;18065;55.876;9.830;2022-07-29T13:24:45;25.07;43.31
31443;SHT31;18065;55.876;9.830;2022-07-29T13:27:18;25.07;43.14
31443;SHT31;18065;55.876;9.830;2022-07-29T13:29:47;25.07;43.18
31443;SHT31;18065;55.876;9.830;2022-07-29T13:32:16;25.10;43.04
31443;SHT31;18065;55.876;9.830;2022-07-29T13:34:46;25.08;43.00
31443;SHT31;18065;55.876;9.830;2022-07-29T13:37:15;25.07;42.95
31443;SHT31;18065;55.876;9.830;2022-07-29T13:39:43;25.10;42.88
31443;SHT31;18065;55.876;9.830;2022-07-29T13:42:13;25.10;42.76
31443;SHT31;18065;55.876;9.830;2022-07-29T13:44:45;25.08;42.64
31443;SHT31;18065;55.876;9.830;2022-07-29T13:47:14;25.10;42.77
31443;SHT31;18065;55.876;9.830;2022-07-29T13:49:43;25.10;42.66
31443;SHT31;18065;55.876;9.830;2022-07-29T13:52:12;25.10;42.71
31443;SHT31;18065;55.876;9.830;2022-07-29T13:54:41;25.11;42.73
31443;SHT31;18065;55.876;9.830;2022-07-29T13:57:10;25.12;42.67
31443;SHT31;18065;55.876;9.830;2022-07-29T13:59:39;25.11;42.67
31443;SHT31;18065;55.876;9.830;2022-07-29T14:02:11;25.12;42.72
31443;SHT31;18065;55.876;9.830;2022-07-29T14:04:40;25.10;42.71
31443;SHT31;18065;55.876;9.830;2022-07-29T14:07:09;25.12;42.76
31443;SHT31;18065;55.876;9.830;2022-07-29T14:09:38;25.12;42.77
31443;SHT31;18065;55.876;9.830;2022-07-29T14:12:07;25.15;42.73
31443;SHT31;18065;55.876;9.830;2022-07-29T14:14:36;25.14;42.78
31443;SHT31;18065;55.876;9.830;2022-07-29T14:17:05;25.12;42.76
31443;SHT31;18065;55.876;9.830;2022-07-29T14:19:37;25.16;42.73
31443;SHT31;18065;55.876;9.830;2022-07-29T14:22:07;25.15;42.74
31443;SHT31;18065;55.876;9.830;2022-07-29T14:24:37;25.16;42.77
31443;SHT31;18065;55.876;9.830;2022-07-29T14:27:06;25.14;42.74
31443;SHT31;18065;55.876;9.830;2022-07-29T14:29:35;25.16;42.69
31443;SHT31;18065;55.876;9.830;2022-07-29T14:32:05;25.14;42.66
31443;SHT31;18065;55.876;9.830;2022-07-29T14:34:38;25.18;42.56
31443;SHT31;18065;55.876;9.830;2022-07-29T14:37:07;25.19;42.56
31443;SHT31;18065;55.876;9.830;2022-07-29T14:39:37;25.18;42.42
31443;SHT31;18065;55.876;9.830;2022-07-29T14:42:06;25.21;42.36
31443;SHT31;18065;55.876;9.830;2022-07-29T14:44:34;25.18;42.32
31443;SHT31;18065;55.876;9.830;2022-07-29T14:47:03;25.22;42.37
31443;SHT31;18065;55.876;9.830;2022-07-29T14:49:32;25.21;42.47
31443;SHT31;18065;55.876;9.830;2022-07-29T14:52:04;25.19;42.39
31443;SHT31;18065;55.876;9.830;2022-07-29T14:54:33;25.23;42.36
31443;SHT31;18065;55.876;9.830;2022-07-29T14:57:02;25.22;42.32
31443;SHT31;18065;55.876;9.830;2022-07-29T14:59:30;25.21;42.32
31443;SHT31;18065;55.876;9.830;2022-07-29T15:01:59;25.22;42.29
31443;SHT31;18065;55.876;9.830;2022-07-29T15:04:28;25.23;42.32
31443;SHT31;18065;55.876;9.830;2022-07-29T15:06:57;25.22;42.33
31443;SHT31;18065;55.876;9.830;2022-07-29T15:09:28;25.23;42.44
31443;SHT31;18065;55.876;9.830;2022-07-29T15:11:57;25.23;42.52
31443;SHT31;18065;55.876;9.830;2022-07-29T15:14:25;25.25;42.59
31443;SHT31;18065;55.876;9.830;2022-07-29T15:16:54;25.25;42.63
31443;SHT31;18065;55.876;9.830;2022-07-29T15:19:23;25.29;42.62
31443;SHT31;18065;55.876;9.830;2022-07-29T15:21:52;25.28;42.69
31443;SHT31;18065;55.876;9.830;2022-07-29T15:24:21;25.25;42.75
31443;SHT31;18065;55.876;9.830;2022-07-29T15:26:52;25.28;42.80
31443;SHT31;18065;55.876;9.830;2022-07-29T15:29:21;25.28;42.89
31443;SHT31;18065;55.876;9.830;2022-07-29T15:31:50;25.28;42.87
31443;SHT31;18065;55.876;9.830;2022-07-29T15:34:18;25.29;42.93
31443;SHT31;18065;55.876;9.830;2022-07-29T15:36:49;25.26;43.00
31443;SHT31;18065;55.876;9.830;2022-07-29T15:39:18;25.28;43.07
31443;SHT31;18065;55.876;9.830;2022-07-29T15:41:47;25.28;43.12
31443;SHT31;18065;55.876;9.830;2022-07-29T15:44:19;25.29;43.20
31443;SHT31;18065;55.876;9.830;2022-07-29T15:46:48;25.31;43.22
31443;SHT31;18065;55.876;9.830;2022-07-29T15:49:33;25.31;43.28
31443;SHT31;18065;55.876;9.830;2022-07-29T15:52:04;25.32;43.39
31443;SHT31;18065;55.876;9.830;2022-07-29T15:54:36;25.33;43.39
31443;SHT31;18065;55.876;9.830;2022-07-29T15:57:06;25.31;43.50
31443;SHT31;18065;55.876;9.830;2022-07-29T15:59:38;25.32;43.56
31443;SHT31;18065;55.876;9.830;2022-07-29T16:02:07;25.33;43.60